sensor_id;sensor_type;location;lat;lon;timestamp;P1;durP1;ratioP1;P2;durP2;ratioP2
4214;SDS011;2121;48.062;7.850;2023-04-12T00:01:15;4.80;;;1.90;;
4214;SDS011;2121;48.062;7.850;2023-04-12T00:03:41;1.80;;;1.70;;
4214;SDS011;2121;48.062;7.850;2023-04-12T00:06:07;2.07;;;1.97;;
4214;SDS011;2121;48.062;7.850;2023-04-12T00:08:35;2.33;;;2.10;;
4214;SDS011;2121;48.062;7.850;2023-04-12T00:11:01;3.07;;;2.17;;
4214;SDS011;2121;48.062;7.850;2023-04-12T00:13:28;1.50;;;1.40;;
4214;SDS011;2121;48.062;7.850;2023-04-12T00:15:54;3.77;;;1.80;;
4214;SDS011;2121;48.062;7.850;2023-04-12T00:18:20;5.10;;;1.87;;
4214;SDS011;2121;48.062;7.850;2023-04-12T00:20:50;2.27;;;1.60;;
4214;SDS011;2121;48.062;7.850;2023-04-12T00:23:16;1.53;;;1.40;;
4214;SDS011;2121;48.062;7.850;2023-04-12T00:25:42;1.80;;;1.70;;
4214;SDS011;2121;48.062;7.850;2023-04-12T00:28:09;4.03;;;1.70;;
4214;SDS011;2121;48.062;7.850;2023-04-12T00:30:35;2.17;;;2.00;;
4214;SDS011;2121;48.062;7.850;2023-04-12T00:33:01;3.83;;;1.80;;
4214;SDS011;2121;48.062;7.850;2023-04-12T00:35:26;4.97;;;1.93;;
4214;SDS011;2121;48.062;7.850;2023-04-12T00:37:52;3.93;;;2.60;;
4214;SDS011;2121;48.062;7.850;2023-04-12T00:40:18;3.70;;;1.70;;
4214;SDS011;2121;48.062;7.850;2023-04-12T00:42:45;1.90;;;1.80;;
4214;SDS011;2121;48.062;7.850;2023-04-12T00:45:11;3.80;;;1.83;;
4214;SDS011;2121;48.062;7.850;2023-04-12T00:47:37;5.60;;;2.07;;
4214;SDS011;2121;48.062;7.850;2023-04-12T00:50:07;2.10;;;1.90;;
4214;SDS011;2121;48.062;7.850;2023-04-12T00:52:34;1.60;;;1.50;;
4214;SDS011;2121;48.062;7.850;2023-04-12T00:55:05;1.83;;;1.73;;
4214;SDS011;2121;48.062;7.850;2023-04-12T00:57:35;2.30;;;1.70;;
4214;SDS011;2121;48.062;7.850;2023-04-12T01:00:04;2.30;;;2.03;;
4214;SDS011;2121;48.062;7.850;2023-04-12T01:02:36;2.00;;;1.77;;
4214;SDS011;2121;48.062;7.850;2023-04-12T01:05:05;4.80;;;1.67;;
4214;SDS011;2121;48.062;7.850;2023-04-12T01:07:41;2.27;;;2.00;;
4214;SDS011;2121;48.062;7.850;2023-04-12T01:13:33;1.90;;;1.80;;
4214;SDS011;2121;48.062;7.850;2023-04-12T01:16:08;10.30;;;1.70;;
4214;SDS011;2121;48.062;7.850;2023-04-12T01:18:58;2.27;;;2.17;;
4214;SDS011;2121;48.062;7.850;2023-04-12T01:21:40;4.83;;;1.60;;
4214;SDS011;2121;48.062;7.850;2023-04-12T01:27:58;2.33;;;2.13;;
4214;SDS011;2121;48.062;7.850;2023-04-12T01:30:33;3.40;;;1.90;;
4214;SDS011;2121;48.062;7.850;2023-04-12T01:33:00;1.40;;;1.30;;
4214;SDS011;2121;48.062;7.850;2023-04-12T01:35:31;4.33;;;1.83;;
4214;SDS011;2121;48.062;7.850;2023-04-12T01:37:57;1.80;;;1.70;;
4214;SDS011;2121;48.062;7.850;2023-04-12T01:40:27;2.33;;;2.20;;
4214;SDS011;2121;48.062;7.850;2023-04-12T01:45:34;2.50;;;2.00;;
4214;SDS011;2121;48.062;7.850;2023-04-12T01:48:01;3.77;;;1.97;;
4214;SDS011;2121;48.062;7.850;2023-04-12T01:55:58;2.37;;;2.17;;
4214;SDS011;2121;48.062;7.850;2023-04-12T01:58:30;3.80;;;2.40;;
4214;SDS011;2121;48.062;7.850;2023-04-12T02:00:57;1.70;;;1.60;;
4214;SDS011;2121;48.062;7.850;2023-04-12T02:03:25;6.50;;;2.30;;
4214;SDS011;2121;48.062;7.850;2023-04-12T02:05:54;2.87;;;1.77;;
4214;SDS011;2121;48.062;7.850;2023-04-12T02:08:23;2.23;;;2.07;;
4214;SDS011;2121;48.062;7.850;2023-04-12T02:10:49;5.43;;;2.80;;
4214;SDS011;2121;48.062;7.850;2023-04-12T02:13:15;2.17;;;1.70;;
4214;SDS011;2121;48.062;7.850;2023-04-12T02:15:44;4.07;;;1.60;;
4214;SDS011;2121;48.062;7.850;2023-04-12T02:18:10;1.83;;;1.70;;
4214;SDS011;2121;48.062;7.850;2023-04-12T02:20:37;1.77;;;1.67;;
4214;SDS011;2121;48.062;7.850;2023-04-12T02:23:03;3.17;;;2.60;;
4214;SDS011;2121;48.062;7.850;2023-04-12T02:25:29;2.17;;;1.97;;
4214;SDS011;2121;48.062;7.850;2023-04-12T02:27:57;1.77;;;1.60;;
4214;SDS011;2121;48.062;7.850;2023-04-12T02:30:22;1.87;;;1.70;;
4214;SDS011;2121;48.062;7.850;2023-04-12T02:32:48;3.30;;;1.80;;
4214;SDS011;2121;48.062;7.850;2023-04-12T02:35:15;1.70;;;1.60;;
4214;SDS011;2121;48.062;7.850;2023-04-12T02:37:42;1.60;;;1.50;;
4214;SDS011;2121;48.062;7.850;2023-04-12T02:40:11;1.70;;;1.60;;
4214;SDS011;2121;48.062;7.850;2023-04-12T02:42:39;7.13;;;1.63;;
4214;SDS011;2121;48.062;7.850;2023-04-12T02:45:07;2.20;;;1.50;;
4214;SDS011;2121;48.062;7.850;2023-04-12T02:47:34;2.00;;;1.60;;
4214;SDS011;2121;48.062;7.850;2023-04-12T02:49:59;1.67;;;1.30;;
4214;SDS011;2121;48.062;7.850;2023-04-12T02:52:26;2.10;;;1.93;;
4214;SDS011;2121;48.062;7.850;2023-04-12T02:54:53;1.80;;;1.70;;
4214;SDS011;2121;48.062;7.850;2023-04-12T02:57:20;2.07;;;1.87;;
4214;SDS011;2121;48.062;7.850;2023-04-12T02:59:47;1.70;;;1.60;;
4214;SDS011;2121;48.062;7.850;2023-04-12T03:02:17;1.57;;;1.47;;
4214;SDS011;2121;48.062;7.850;2023-04-12T03:04:46;3.87;;;1.73;;
4214;SDS011;2121;48.062;7.850;2023-04-12T03:07:18;2.30;;;1.80;;
4214;SDS011;2121;48.062;7.850;2023-04-12T03:09:45;3.60;;;2.60;;
4214;SDS011;2121;48.062;7.850;2023-04-12T03:12:13;1.77;;;1.67;;
4214;SDS011;2121;48.062;7.850;2023-04-12T03:14:40;4.00;;;2.50;;
4214;SDS011;2121;48.062;7.850;2023-04-12T03:17:06;2.20;;;2.00;;
4214;SDS011;2121;48.062;7.850;2023-04-12T03:19:32;1.80;;;1.70;;
4214;SDS011;2121;48.062;7.850;2023-04-12T03:21:59;2.50;;;2.30;;
4214;SDS011;2121;48.062;7.850;2023-04-12T03:24:26;2.23;;;1.97;;
4214;SDS011;2121;48.062;7.850;2023-04-12T03:26:52;3.43;;;1.93;;
4214;SDS011;2121;48.062;7.850;2023-04-12T03:29:18;3.43;;;1.80;;
4214;SDS011;2121;48.062;7.850;2023-04-12T03:31:44;3.77;;;1.97;;
4214;SDS011;2121;48.062;7.850;2023-04-12T03:34:10;2.17;;;2.00;;
4214;SDS011;2121;48.062;7.850;2023-04-12T03:36:36;3.57;;;2.20;;
4214;SDS011;2121;48.062;7.850;2023-04-12T03:39:02;1.93;;;1.70;;
4214;SDS011;2121;48.062;7.850;2023-04-12T03:41:28;2.30;;;2.10;;
4214;SDS011;2121;48.062;7.850;2023-04-12T03:43:54;2.60;;;2.33;;
4214;SDS011;2121;48.062;7.850;2023-04-12T03:46:19;4.67;;;2.20;;
4214;SDS011;2121;48.062;7.850;2023-04-12T03:48:45;5.07;;;1.90;;
4214;SDS011;2121;48.062;7.850;2023-04-12T03:51:11;2.27;;;2.07;;
4214;SDS011;2121;48.062;7.850;2023-04-12T03:53:37;2.30;;;2.10;;
4214;SDS011;2121;48.062;7.850;2023-04-12T03:56:03;3.87;;;2.10;;
4214;SDS011;2121;48.062;7.850;2023-04-12T03:58:29;2.07;;;1.97;;
4214;SDS011;2121;48.062;7.850;2023-04-12T04:00:57;2.60;;;2.40;;
4214;SDS011;2121;48.062;7.850;2023-04-12T04:03:30;5.10;;;3.17;;
4214;SDS011;2121;48.062;7.850;2023-04-12T04:05:59;2.50;;;2.30;;
4214;SDS011;2121;48.062;7.850;2023-04-12T04:08:26;2.33;;;2.13;;
4214;SDS011;2121;48.062;7.850;2023-04-12T04:10:53;3.20;;;2.27;;
4214;SDS011;2121;48.062;7.850;2023-04-12T04:13:20;5.30;;;2.20;;
4214;SDS011;2121;48.062;7.850;2023-04-12T04:15:49;3.80;;;2.30;;
4214;SDS011;2121;48.062;7.850;2023-04-12T04:18:26;2.63;;;2.53;;
4214;SDS011;2121;48.062;7.850;2023-04-12T04:20:51;2.73;;;1.77;;
4214;SDS011;2121;48.062;7.850;2023-04-12T04:23:17;2.57;;;2.40;;
4214;SDS011;2121;48.062;7.850;2023-04-12T04:25:43;4.70;;;3.00;;
4214;SDS011;2121;48.062;7.850;2023-04-12T04:28:09;5.70;;;3.20;;
4214;SDS011;2121;48.062;7.850;2023-04-12T04:30:35;8.43;;;2.70;;
4214;SDS011;2121;48.062;7.850;2023-04-12T04:33:05;4.10;;;2.40;;
4214;SDS011;2121;48.062;7.850;2023-04-12T04:35:32;3.40;;;2.63;;
4214;SDS011;2121;48.062;7.850;2023-04-12T04:37:58;3.03;;;2.67;;
4214;SDS011;2121;48.062;7.850;2023-04-12T04:40:25;2.57;;;2.37;;
4214;SDS011;2121;48.062;7.850;2023-04-12T04:42:52;2.60;;;2.40;;
4214;SDS011;2121;48.062;7.850;2023-04-12T04:45:20;2.50;;;2.23;;
4214;SDS011;2121;48.062;7.850;2023-04-12T04:47:50;3.00;;;2.50;;
4214;SDS011;2121;48.062;7.850;2023-04-12T04:50:23;3.70;;;2.17;;
4214;SDS011;2121;48.062;7.850;2023-04-12T04:52:50;4.30;;;2.50;;
4214;SDS011;2121;48.062;7.850;2023-04-12T04:55:16;3.43;;;2.20;;
4214;SDS011;2121;48.062;7.850;2023-04-12T04:57:42;4.53;;;2.40;;
4214;SDS011;2121;48.062;7.850;2023-04-12T05:00:09;2.70;;;2.50;;
4214;SDS011;2121;48.062;7.850;2023-04-12T05:02:36;3.53;;;2.40;;
4214;SDS011;2121;48.062;7.850;2023-04-12T05:05:04;2.87;;;2.67;;
4214;SDS011;2121;48.062;7.850;2023-04-12T05:07:31;3.30;;;3.00;;
4214;SDS011;2121;48.062;7.850;2023-04-12T05:09:57;3.47;;;3.10;;
4214;SDS011;2121;48.062;7.850;2023-04-12T05:12:22;4.10;;;2.40;;
4214;SDS011;2121;48.062;7.850;2023-04-12T05:14:48;6.93;;;3.60;;
4214;SDS011;2121;48.062;7.850;2023-04-12T05:17:14;7.73;;;3.00;;
4214;SDS011;2121;48.062;7.850;2023-04-12T05:19:40;5.90;;;2.50;;
4214;SDS011;2121;48.062;7.850;2023-04-12T05:22:07;7.53;;;2.87;;
4214;SDS011;2121;48.062;7.850;2023-04-12T05:24:33;2.50;;;2.40;;
4214;SDS011;2121;48.062;7.850;2023-04-12T05:26:59;3.33;;;2.63;;
4214;SDS011;2121;48.062;7.850;2023-04-12T05:29:24;4.50;;;2.77;;
4214;SDS011;2121;48.062;7.850;2023-04-12T05:31:50;4.07;;;2.40;;
4214;SDS011;2121;48.062;7.850;2023-04-12T05:34:16;2.77;;;2.57;;
4214;SDS011;2121;48.062;7.850;2023-04-12T05:36:41;4.00;;;2.90;;
4214;SDS011;2121;48.062;7.850;2023-04-12T05:39:07;6.90;;;4.00;;
4214;SDS011;2121;48.062;7.850;2023-04-12T05:41:33;6.00;;;5.40;;
4214;SDS011;2121;48.062;7.850;2023-04-12T05:43:58;11.17;;;4.90;;
4214;SDS011;2121;48.062;7.850;2023-04-12T05:46:24;4.00;;;3.70;;
4214;SDS011;2121;48.062;7.850;2023-04-12T05:48:50;3.70;;;3.30;;
4214;SDS011;2121;48.062;7.850;2023-04-12T05:51:16;10.20;;;3.60;;
4214;SDS011;2121;48.062;7.850;2023-04-12T05:53:41;8.13;;;3.60;;
4214;SDS011;2121;48.062;7.850;2023-04-12T05:56:08;5.07;;;3.73;;
4214;SDS011;2121;48.062;7.850;2023-04-12T05:58:34;17.20;;;4.03;;
4214;SDS011;2121;48.062;7.850;2023-04-12T06:01:00;4.17;;;3.33;;
4214;SDS011;2121;48.062;7.850;2023-04-12T06:03:26;4.37;;;3.53;;
4214;SDS011;2121;48.062;7.850;2023-04-12T06:05:54;5.03;;;3.20;;
4214;SDS011;2121;48.062;7.850;2023-04-12T06:08:20;6.37;;;4.40;;
4214;SDS011;2121;48.062;7.850;2023-04-12T06:10:45;9.87;;;5.10;;
4214;SDS011;2121;48.062;7.850;2023-04-12T06:13:11;6.17;;;4.97;;
4214;SDS011;2121;48.062;7.850;2023-04-12T06:15:37;11.00;;;5.00;;
4214;SDS011;2121;48.062;7.850;2023-04-12T06:18:02;4.80;;;4.40;;
4214;SDS011;2121;48.062;7.850;2023-04-12T06:20:31;7.33;;;3.43;;
4214;SDS011;2121;48.062;7.850;2023-04-12T06:22:57;7.20;;;3.80;;
4214;SDS011;2121;48.062;7.850;2023-04-12T06:25:22;3.67;;;3.37;;
4214;SDS011;2121;48.062;7.850;2023-04-12T06:27:48;4.93;;;3.53;;
4214;SDS011;2121;48.062;7.850;2023-04-12T06:30:14;3.97;;;2.50;;
4214;SDS011;2121;48.062;7.850;2023-04-12T06:32:40;7.67;;;3.03;;
4214;SDS011;2121;48.062;7.850;2023-04-12T06:35:06;3.70;;;2.87;;
4214;SDS011;2121;48.062;7.850;2023-04-12T06:37:32;3.20;;;2.67;;
4214;SDS011;2121;48.062;7.850;2023-04-12T06:39:58;9.73;;;3.10;;
4214;SDS011;2121;48.062;7.850;2023-04-12T06:42:24;4.37;;;2.50;;
4214;SDS011;2121;48.062;7.850;2023-04-12T06:44:49;4.60;;;2.87;;
4214;SDS011;2121;48.062;7.850;2023-04-12T06:47:15;4.23;;;3.83;;
4214;SDS011;2121;48.062;7.850;2023-04-12T06:49:41;6.43;;;4.30;;
4214;SDS011;2121;48.062;7.850;2023-04-12T06:52:06;4.97;;;4.33;;
4214;SDS011;2121;48.062;7.850;2023-04-12T06:54:35;7.37;;;4.60;;
4214;SDS011;2121;48.062;7.850;2023-04-12T06:57:01;7.03;;;5.50;;
4214;SDS011;2121;48.062;7.850;2023-04-12T06:59:27;8.33;;;4.63;;
4214;SDS011;2121;48.062;7.850;2023-04-12T07:01:53;8.27;;;5.53;;
4214;SDS011;2121;48.062;7.850;2023-04-12T07:04:19;9.40;;;5.83;;
4214;SDS011;2121;48.062;7.850;2023-04-12T07:06:45;6.47;;;3.90;;
4214;SDS011;2121;48.062;7.850;2023-04-12T07:09:10;4.63;;;3.73;;
4214;SDS011;2121;48.062;7.850;2023-04-12T07:11:36;6.90;;;3.70;;
4214;SDS011;2121;48.062;7.850;2023-04-12T07:14:02;4.10;;;3.70;;
4214;SDS011;2121;48.062;7.850;2023-04-12T07:16:28;4.40;;;4.00;;
4214;SDS011;2121;48.062;7.850;2023-04-12T07:18:58;8.30;;;4.20;;
4214;SDS011;2121;48.062;7.850;2023-04-12T07:21:24;4.33;;;3.93;;
4214;SDS011;2121;48.062;7.850;2023-04-12T07:23:51;6.10;;;3.60;;
4214;SDS011;2121;48.062;7.850;2023-04-12T07:26:17;3.27;;;2.97;;
4214;SDS011;2121;48.062;7.850;2023-04-12T07:28:43;3.57;;;3.13;;
4214;SDS011;2121;48.062;7.850;2023-04-12T07:31:09;6.60;;;3.50;;
4214;SDS011;2121;48.062;7.850;2023-04-12T07:33:35;6.20;;;3.70;;
4214;SDS011;2121;48.062;7.850;2023-04-12T07:36:01;3.63;;;3.33;;
4214;SDS011;2121;48.062;7.850;2023-04-12T07:38:28;3.67;;;3.10;;
4214;SDS011;2121;48.062;7.850;2023-04-12T07:40:54;6.30;;;4.27;;
4214;SDS011;2121;48.062;7.850;2023-04-12T07:43:21;3.47;;;3.17;;
4214;SDS011;2121;48.062;7.850;2023-04-12T07:45:47;11.43;;;3.60;;
4214;SDS011;2121;48.062;7.850;2023-04-12T07:48:13;2.23;;;2.07;;
4214;SDS011;2121;48.062;7.850;2023-04-12T07:50:40;3.77;;;3.30;;
4214;SDS011;2121;48.062;7.850;2023-04-12T07:53:18;2.53;;;2.33;;
4214;SDS011;2121;48.062;7.850;2023-04-12T07:55:50;3.20;;;2.90;;
4214;SDS011;2121;48.062;7.850;2023-04-12T07:58:16;2.23;;;1.93;;
4214;SDS011;2121;48.062;7.850;2023-04-12T08:00:43;2.90;;;2.60;;
4214;SDS011;2121;48.062;7.850;2023-04-12T08:03:11;7.50;;;2.50;;
4214;SDS011;2121;48.062;7.850;2023-04-12T08:05:38;5.87;;;3.43;;
4214;SDS011;2121;48.062;7.850;2023-04-12T08:08:04;3.03;;;2.17;;
4214;SDS011;2121;48.062;7.850;2023-04-12T08:10:31;3.93;;;2.30;;
4214;SDS011;2121;48.062;7.850;2023-04-12T08:12:57;4.70;;;2.27;;
4214;SDS011;2121;48.062;7.850;2023-04-12T08:15:23;4.30;;;2.57;;
4214;SDS011;2121;48.062;7.850;2023-04-12T08:17:49;3.50;;;2.47;;
4214;SDS011;2121;48.062;7.850;2023-04-12T08:20:15;2.07;;;1.87;;
4214;SDS011;2121;48.062;7.850;2023-04-12T08:22:44;7.97;;;2.60;;
4214;SDS011;2121;48.062;7.850;2023-04-12T08:25:10;2.77;;;2.47;;
4214;SDS011;2121;48.062;7.850;2023-04-12T08:27:40;3.13;;;2.00;;
4214;SDS011;2121;48.062;7.850;2023-04-12T08:30:07;2.90;;;2.20;;
4214;SDS011;2121;48.062;7.850;2023-04-12T08:32:34;2.20;;;2.00;;
4214;SDS011;2121;48.062;7.850;2023-04-12T08:35:01;2.43;;;2.10;;
4214;SDS011;2121;48.062;7.850;2023-04-12T08:37:31;2.10;;;1.90;;
4214;SDS011;2121;48.062;7.850;2023-04-12T08:40:02;3.53;;;2.37;;
4214;SDS011;2121;48.062;7.850;2023-04-12T08:42:35;4.47;;;2.33;;
4214;SDS011;2121;48.062;7.850;2023-04-12T08:45:09;3.90;;;2.23;;
4214;SDS011;2121;48.062;7.850;2023-04-12T08:47:36;3.50;;;2.20;;
4214;SDS011;2121;48.062;7.850;2023-04-12T08:50:05;2.30;;;2.20;;
4214;SDS011;2121;48.062;7.850;2023-04-12T08:52:33;6.60;;;2.27;;
4214;SDS011;2121;48.062;7.850;2023-04-12T08:55:03;11.33;;;2.80;;
4214;SDS011;2121;48.062;7.850;2023-04-12T08:57:30;5.90;;;2.87;;
4214;SDS011;2121;48.062;7.850;2023-04-12T08:59:57;2.37;;;2.17;;
4214;SDS011;2121;48.062;7.850;2023-04-12T09:02:25;3.27;;;2.20;;
4214;SDS011;2121;48.062;7.850;2023-04-12T09:04:51;2.50;;;2.30;;
4214;SDS011;2121;48.062;7.850;2023-04-12T09:07:18;3.70;;;2.23;;
4214;SDS011;2121;48.062;7.850;2023-04-12T09:09:47;4.27;;;2.70;;
4214;SDS011;2121;48.062;7.850;2023-04-12T09:12:14;3.00;;;2.50;;
4214;SDS011;2121;48.062;7.850;2023-04-12T09:14:41;3.23;;;2.60;;
4214;SDS011;2121;48.062;7.850;2023-04-12T09:17:23;4.27;;;2.10;;
4214;SDS011;2121;48.062;7.850;2023-04-12T09:19:51;2.90;;;2.30;;
4214;SDS011;2121;48.062;7.850;2023-04-12T09:22:35;6.57;;;2.87;;
4214;SDS011;2121;48.062;7.850;2023-04-12T09:25:04;6.93;;;3.40;;
4214;SDS011;2121;48.062;7.850;2023-04-12T09:27:46;6.60;;;2.90;;
4214;SDS011;2121;48.062;7.850;2023-04-12T09:30:14;6.07;;;2.93;;
4214;SDS011;2121;48.062;7.850;2023-04-12T09:32:41;3.50;;;2.57;;
4214;SDS011;2121;48.062;7.850;2023-04-12T09:35:08;3.37;;;3.07;;
4214;SDS011;2121;48.062;7.850;2023-04-12T09:37:34;5.33;;;2.33;;
4214;SDS011;2121;48.062;7.850;2023-04-12T09:40:03;2.90;;;2.50;;
4214;SDS011;2121;48.062;7.850;2023-04-12T09:42:32;6.97;;;3.20;;
4214;SDS011;2121;48.062;7.850;2023-04-12T09:45:00;5.30;;;2.80;;
4214;SDS011;2121;48.062;7.850;2023-04-12T09:47:43;9.67;;;2.80;;
4214;SDS011;2121;48.062;7.850;2023-04-12T09:50:09;3.30;;;2.57;;
4214;SDS011;2121;48.062;7.850;2023-04-12T09:52:52;4.57;;;2.97;;
4214;SDS011;2121;48.062;7.850;2023-04-12T09:55:23;6.40;;;2.50;;
4214;SDS011;2121;48.062;7.850;2023-04-12T09:57:51;5.00;;;3.13;;
4214;SDS011;2121;48.062;7.850;2023-04-12T10:00:22;3.40;;;2.50;;
4214;SDS011;2121;48.062;7.850;2023-04-12T10:02:51;4.63;;;3.57;;
4214;SDS011;2121;48.062;7.850;2023-04-12T10:05:19;8.43;;;3.10;;
4214;SDS011;2121;48.062;7.850;2023-04-12T10:07:47;3.70;;;3.00;;
4214;SDS011;2121;48.062;7.850;2023-04-12T10:10:16;3.30;;;3.00;;
4214;SDS011;2121;48.062;7.850;2023-04-12T10:12:44;4.43;;;3.20;;
4214;SDS011;2121;48.062;7.850;2023-04-12T10:15:12;3.63;;;3.30;;
4214;SDS011;2121;48.062;7.850;2023-04-12T10:17:42;8.90;;;3.50;;
4214;SDS011;2121;48.062;7.850;2023-04-12T10:20:17;4.50;;;3.40;;
4214;SDS011;2121;48.062;7.850;2023-04-12T10:22:45;6.97;;;3.60;;
4214;SDS011;2121;48.062;7.850;2023-04-12T10:25:16;4.40;;;2.70;;
4214;SDS011;2121;48.062;7.850;2023-04-12T10:27:45;7.93;;;2.67;;
4214;SDS011;2121;48.062;7.850;2023-04-12T10:30:19;3.60;;;2.43;;
4214;SDS011;2121;48.062;7.850;2023-04-12T10:35:27;3.30;;;2.57;;
4214;SDS011;2121;48.062;7.850;2023-04-12T10:38:00;3.97;;;2.50;;
4214;SDS011;2121;48.062;7.850;2023-04-12T10:40:29;3.63;;;2.30;;
4214;SDS011;2121;48.062;7.850;2023-04-12T10:45:43;3.80;;;2.70;;
4214;SDS011;2121;48.062;7.850;2023-04-12T10:59:05;3.70;;;2.20;;
4214;SDS011;2121;48.062;7.850;2023-04-12T11:01:32;3.40;;;2.23;;
4214;SDS011;2121;48.062;7.850;2023-04-12T11:04:06;2.97;;;2.40;;
4214;SDS011;2121;48.062;7.850;2023-04-12T11:09:36;4.33;;;2.50;;
4214;SDS011;2121;48.062;7.850;2023-04-12T11:14:38;2.80;;;2.30;;
4214;SDS011;2121;48.062;7.850;2023-04-12T11:19:51;3.27;;;2.50;;
4214;SDS011;2121;48.062;7.850;2023-04-12T11:22:28;5.30;;;2.83;;
4214;SDS011;2121;48.062;7.850;2023-04-12T11:25:00;3.20;;;2.07;;
4214;SDS011;2121;48.062;7.850;2023-04-12T11:27:27;4.33;;;2.37;;
4214;SDS011;2121;48.062;7.850;2023-04-12T11:29:56;3.10;;;1.87;;
4214;SDS011;2121;48.062;7.850;2023-04-12T11:32:24;3.27;;;2.17;;
4214;SDS011;2121;48.062;7.850;2023-04-12T11:34:53;1.80;;;1.70;;
4214;SDS011;2121;48.062;7.850;2023-04-12T11:37:21;2.43;;;2.23;;
4214;SDS011;2121;48.062;7.850;2023-04-12T11:39:49;2.10;;;1.87;;
4214;SDS011;2121;48.062;7.850;2023-04-12T11:42:22;2.10;;;2.00;;
4214;SDS011;2121;48.062;7.850;2023-04-12T11:44:49;2.07;;;1.87;;
4214;SDS011;2121;48.062;7.850;2023-04-12T11:47:16;4.40;;;2.10;;
4214;SDS011;2121;48.062;7.850;2023-04-12T11:49:48;2.20;;;2.00;;
4214;SDS011;2121;48.062;7.850;2023-04-12T11:52:19;5.00;;;2.77;;
4214;SDS011;2121;48.062;7.850;2023-04-12T11:54:50;1.77;;;1.67;;
4214;SDS011;2121;48.062;7.850;2023-04-12T11:57:20;2.10;;;1.90;;
4214;SDS011;2121;48.062;7.850;2023-04-12T11:59:46;2.90;;;2.30;;
4214;SDS011;2121;48.062;7.850;2023-04-12T12:02:14;1.90;;;1.80;;
4214;SDS011;2121;48.062;7.850;2023-04-12T12:04:42;3.37;;;2.17;;
4214;SDS011;2121;48.062;7.850;2023-04-12T12:07:16;1.90;;;1.80;;
4214;SDS011;2121;48.062;7.850;2023-04-12T12:09:43;1.83;;;1.73;;
4214;SDS011;2121;48.062;7.850;2023-04-12T12:12:11;2.27;;;1.57;;
4214;SDS011;2121;48.062;7.850;2023-04-12T12:14:38;2.83;;;1.33;;
4214;SDS011;2121;48.062;7.850;2023-04-12T12:17:10;2.10;;;1.57;;
4214;SDS011;2121;48.062;7.850;2023-04-12T12:19:39;5.17;;;2.50;;
4214;SDS011;2121;48.062;7.850;2023-04-12T12:22:17;1.80;;;1.40;;
4214;SDS011;2121;48.062;7.850;2023-04-12T12:24:55;2.13;;;1.77;;
4214;SDS011;2121;48.062;7.850;2023-04-12T12:30:01;5.23;;;2.03;;
4214;SDS011;2121;48.062;7.850;2023-04-12T12:32:31;1.90;;;1.80;;
4214;SDS011;2121;48.062;7.850;2023-04-12T12:35:07;1.80;;;1.63;;
4214;SDS011;2121;48.062;7.850;2023-04-12T12:37:35;4.60;;;2.03;;
4214;SDS011;2121;48.062;7.850;2023-04-12T12:40:05;1.87;;;1.67;;
4214;SDS011;2121;48.062;7.850;2023-04-12T12:42:46;2.40;;;1.80;;
4214;SDS011;2121;48.062;7.850;2023-04-12T12:45:19;2.03;;;1.60;;
4214;SDS011;2121;48.062;7.850;2023-04-12T12:50:24;2.13;;;1.70;;
4214;SDS011;2121;48.062;7.850;2023-04-12T12:52:55;1.47;;;1.40;;
4214;SDS011;2121;48.062;7.850;2023-04-12T12:55:22;3.43;;;1.90;;
4214;SDS011;2121;48.062;7.850;2023-04-12T12:57:50;1.73;;;1.40;;
4214;SDS011;2121;48.062;7.850;2023-04-12T13:00:18;3.00;;;1.40;;
4214;SDS011;2121;48.062;7.850;2023-04-12T13:02:47;1.70;;;1.60;;
4214;SDS011;2121;48.062;7.850;2023-04-12T13:05:14;1.50;;;1.40;;
4214;SDS011;2121;48.062;7.850;2023-04-12T13:07:40;1.67;;;1.57;;
4214;SDS011;2121;48.062;7.850;2023-04-12T13:10:07;3.23;;;1.53;;
4214;SDS011;2121;48.062;7.850;2023-04-12T13:12:33;2.10;;;1.80;;
4214;SDS011;2121;48.062;7.850;2023-04-12T13:14:59;2.73;;;1.57;;
4214;SDS011;2121;48.062;7.850;2023-04-12T13:17:25;1.30;;;1.20;;
4214;SDS011;2121;48.062;7.850;2023-04-12T13:19:52;1.67;;;1.57;;
4214;SDS011;2121;48.062;7.850;2023-04-12T13:22:18;1.50;;;1.40;;
4214;SDS011;2121;48.062;7.850;2023-04-12T13:24:44;3.20;;;1.30;;
4214;SDS011;2121;48.062;7.850;2023-04-12T13:27:11;3.90;;;2.17;;
4214;SDS011;2121;48.062;7.850;2023-04-12T13:29:38;1.93;;;1.50;;
4214;SDS011;2121;48.062;7.850;2023-04-12T13:32:05;1.43;;;1.33;;
4214;SDS011;2121;48.062;7.850;2023-04-12T13:34:31;2.87;;;1.47;;
4214;SDS011;2121;48.062;7.850;2023-04-12T13:36:57;2.37;;;1.80;;
4214;SDS011;2121;48.062;7.850;2023-04-12T13:39:23;2.60;;;1.60;;
4214;SDS011;2121;48.062;7.850;2023-04-12T13:41:49;2.03;;;1.60;;
4214;SDS011;2121;48.062;7.850;2023-04-12T13:44:16;2.23;;;1.33;;
4214;SDS011;2121;48.062;7.850;2023-04-12T13:46:42;1.33;;;1.23;;
4214;SDS011;2121;48.062;7.850;2023-04-12T13:49:07;4.77;;;1.73;;
4214;SDS011;2121;48.062;7.850;2023-04-12T13:51:33;1.20;;;1.20;;
4214;SDS011;2121;48.062;7.850;2023-04-12T13:53:59;1.40;;;1.30;;
4214;SDS011;2121;48.062;7.850;2023-04-12T13:56:25;1.77;;;1.67;;
4214;SDS011;2121;48.062;7.850;2023-04-12T13:58:51;1.67;;;1.20;;
4214;SDS011;2121;48.062;7.850;2023-04-12T14:01:16;2.47;;;1.70;;
4214;SDS011;2121;48.062;7.850;2023-04-12T14:03:42;1.30;;;1.20;;
4214;SDS011;2121;48.062;7.850;2023-04-12T14:06:08;2.30;;;1.30;;
4214;SDS011;2121;48.062;7.850;2023-04-12T14:08:34;1.60;;;1.50;;
4214;SDS011;2121;48.062;7.850;2023-04-12T14:11:01;1.40;;;1.30;;
4214;SDS011;2121;48.062;7.850;2023-04-12T14:13:27;1.40;;;1.30;;
4214;SDS011;2121;48.062;7.850;2023-04-12T14:15:53;1.50;;;1.40;;
4214;SDS011;2121;48.062;7.850;2023-04-12T14:18:20;1.77;;;1.30;;
4214;SDS011;2121;48.062;7.850;2023-04-12T14:20:49;1.20;;;1.20;;
4214;SDS011;2121;48.062;7.850;2023-04-12T14:23:21;1.63;;;1.53;;
4214;SDS011;2121;48.062;7.850;2023-04-12T14:25:49;1.50;;;1.40;;
4214;SDS011;2121;48.062;7.850;2023-04-12T14:28:16;2.07;;;1.50;;
4214;SDS011;2121;48.062;7.850;2023-04-12T14:30:45;1.13;;;1.13;;
4214;SDS011;2121;48.062;7.850;2023-04-12T14:33:14;1.27;;;1.20;;
4214;SDS011;2121;48.062;7.850;2023-04-12T14:35:41;1.37;;;1.37;;
4214;SDS011;2121;48.062;7.850;2023-04-12T14:38:07;2.20;;;1.30;;
4214;SDS011;2121;48.062;7.850;2023-04-12T14:40:33;2.50;;;1.30;;
4214;SDS011;2121;48.062;7.850;2023-04-12T14:42:59;1.27;;;1.27;;
4214;SDS011;2121;48.062;7.850;2023-04-12T14:45:25;1.30;;;1.20;;
4214;SDS011;2121;48.062;7.850;2023-04-12T14:47:52;2.50;;;1.50;;
4214;SDS011;2121;48.062;7.850;2023-04-12T14:50:18;2.30;;;1.30;;
4214;SDS011;2121;48.062;7.850;2023-04-12T14:52:44;2.03;;;1.43;;
4214;SDS011;2121;48.062;7.850;2023-04-12T14:55:10;1.70;;;1.60;;
4214;SDS011;2121;48.062;7.850;2023-04-12T14:57:35;1.10;;;1.10;;
4214;SDS011;2121;48.062;7.850;2023-04-12T15:00:02;1.90;;;1.60;;
4214;SDS011;2121;48.062;7.850;2023-04-12T15:02:37;2.70;;;1.40;;
4214;SDS011;2121;48.062;7.850;2023-04-12T15:05:04;1.50;;;1.40;;
4214;SDS011;2121;48.062;7.850;2023-04-12T15:07:33;1.30;;;1.20;;
4214;SDS011;2121;48.062;7.850;2023-04-12T15:09:59;1.67;;;1.50;;
4214;SDS011;2121;48.062;7.850;2023-04-12T15:12:25;1.43;;;1.33;;
4214;SDS011;2121;48.062;7.850;2023-04-12T15:14:57;1.60;;;1.50;;
4214;SDS011;2121;48.062;7.850;2023-04-12T15:17:24;1.23;;;1.20;;
4214;SDS011;2121;48.062;7.850;2023-04-12T15:19:50;2.50;;;1.33;;
4214;SDS011;2121;48.062;7.850;2023-04-12T15:22:16;1.63;;;1.50;;
4214;SDS011;2121;48.062;7.850;2023-04-12T15:24:42;1.37;;;1.27;;
4214;SDS011;2121;48.062;7.850;2023-04-12T15:27:08;1.50;;;1.40;;
4214;SDS011;2121;48.062;7.850;2023-04-12T15:29:33;1.40;;;1.30;;
4214;SDS011;2121;48.062;7.850;2023-04-12T15:31:59;2.60;;;1.27;;
4214;SDS011;2121;48.062;7.850;2023-04-12T15:34:25;2.83;;;2.07;;
4214;SDS011;2121;48.062;7.850;2023-04-12T15:36:52;1.90;;;1.80;;
4214;SDS011;2121;48.062;7.850;2023-04-12T15:39:18;6.00;;;2.93;;
4214;SDS011;2121;48.062;7.850;2023-04-12T15:41:44;3.13;;;2.83;;
4214;SDS011;2121;48.062;7.850;2023-04-12T15:44:10;3.07;;;2.30;;
4214;SDS011;2121;48.062;7.850;2023-04-12T15:46:37;2.47;;;2.20;;
4214;SDS011;2121;48.062;7.850;2023-04-12T15:49:06;6.60;;;3.10;;
4214;SDS011;2121;48.062;7.850;2023-04-12T15:51:32;6.07;;;2.90;;
4214;SDS011;2121;48.062;7.850;2023-04-12T15:53:59;2.60;;;2.40;;
4214;SDS011;2121;48.062;7.850;2023-04-12T15:56:26;2.40;;;2.20;;
4214;SDS011;2121;48.062;7.850;2023-04-12T15:58:53;2.23;;;2.00;;
4214;SDS011;2121;48.062;7.850;2023-04-12T16:01:25;4.73;;;2.93;;
4214;SDS011;2121;48.062;7.850;2023-04-12T16:03:51;7.27;;;6.57;;